Time;durP1;ratioP1;P1;durP2;ratioP2;P2;SDS_P1;SDS_P2;PMS_P1;PMS_P2;Temp;Humidity;BMP_temperature;BMP_pressure;BME280_temperature;BME280_humidity;BME280_pressure;Samples;Min_cycle;Max_cycle;Signal;HPM_P1;HPM_P2
2023/01/14 00:00:17;;;;;;;6.43;4.22;;;;;;;9.85;77.80;101985.66;4955844;28;20023;-84
2023/01/14 00:02:43;;;;;;;5.97;4.07;;;;;;;9.55;77.91;101965.16;4973557;28;20126;-85
2023/01/14 00:05:09;;;;;;;6.55;3.92;;;;;;;10.03;77.87;102031.41;4973347;28;20114;-85
2023/01/14 00:07:35;;;;;;;6.20;4.22;;;;;;;9.72;77.79;101982.13;4955222;28;20321;-84
2023/01/14 00:10:01;;;;;;;5.57;4.03;;;;;;;10.02;78.00;102040.03;4955673;28;20023;-84
2023/01/14 00:12:26;;;;;;;6.43;4.40;;;;;;;9.70;78.39;101986.31;4943450;28;20035;-85
2023/01/14 00:14:52;;;;;;;6.90;4.43;;;;;;;10.06;78.17;102039.47;4971999;28;20086;-84
2023/01/14 00:17:18;;;;;;;6.85;4.68;;;;;;;10.01;78.07;102032.09;4963572;28;20040;-84
2023/01/14 00:19:43;;;;;;;5.60;4.30;;;;;;;9.99;78.16;102039.81;4952991;28;20034;-84
2023/01/14 00:22:09;;;;;;;7.30;4.68;;;;;;;9.67;78.10;101979.94;4955772;28;20105;-84
2023/01/14 00:24:35;;;;;;;5.88;4.18;;;;;;;9.52;78.16;101961.41;4972586;28;20046;-84
2023/01/14 00:27:01;;;;;;;5.93;4.03;;;;;;;9.70;77.91;101983.69;4972708;28;20026;-84
2023/01/14 00:29:31;;;;;;;7.38;4.80;;;;;;;9.65;77.88;101974.63;4973180;28;20035;-84
2023/01/14 00:31:57;;;;;;;5.95;4.07;;;;;;;9.88;78.08;102022.41;4954567;28;20488;-85
2023/01/14 00:34:25;;;;;;;6.45;4.43;;;;;;;9.81;77.78;102013.22;4955451;28;20038;-84
2023/01/14 00:36:51;;;;;;;6.53;4.28;;;;;;;10.05;77.54;102044.59;4958771;28;20085;-84
2023/01/14 00:39:16;;;;;;;7.32;4.85;;;;;;;9.90;77.87;102015.63;4957282;28;20038;-84
2023/01/14 00:41:42;;;;;;;6.70;4.40;;;;;;;10.07;77.57;102043.91;4954983;28;20547;-84
2023/01/14 00:44:08;;;;;;;6.40;4.55;;;;;;;10.02;77.96;102044.34;4955205;28;20412;-85
2023/01/14 00:46:36;;;;;;;7.53;4.63;;;;;;;10.08;77.38;102039.63;4972599;28;20034;-84
2023/01/14 00:49:03;;;;;;;6.97;4.65;;;;;;;10.04;77.74;102041.06;4955000;28;20023;-84
2023/01/14 00:51:30;;;;;;;6.53;4.68;;;;;;;10.00;77.79;102039.00;4962563;28;20027;-85
2023/01/14 00:53:57;;;;;;;8.02;4.75;;;;;;;10.03;77.99;102051.38;4967183;28;20027;-85
2023/01/14 00:56:23;;;;;;;7.93;5.10;;;;;;;9.96;77.93;102035.25;4963049;28;20801;-85
2023/01/14 00:58:49;;;;;;;7.57;5.10;;;;;;;9.96;77.90;102039.56;4947626;28;20035;-84
2023/01/14 01:01:15;;;;;;;8.15;5.40;;;;;;;9.71;77.60;101988.09;4953912;28;20424;-85
2023/01/14 01:03:42;;;;;;;;;;;;;;;10.02;77.65;102034.81;4955265;28;20031;-85
2023/01/14 01:06:08;;;;;;;8.38;5.30;;;;;;;9.65;77.44;101958.97;4954547;28;20001;-84
2023/01/14 01:08:34;;;;;;;8.43;4.95;;;;;;;9.63;77.73;101967.44;4943556;28;20675;-84
2023/01/14 01:10:59;;;;;;;7.60;4.82;;;;;;;9.82;77.69;102002.00;4931371;29;20024;-84
2023/01/14 01:13:25;;;;;;;8.60;5.28;;;;;;;9.89;77.54;102008.59;4947455;28;20031;-85
2023/01/14 01:15:52;;;;;;;9.32;5.07;;;;;;;10.04;77.47;102027.13;4932356;29;20061;-84
2023/01/14 01:18:18;;;;;;;8.80;5.25;;;;;;;9.77;77.34;101988.56;4939724;28;20058;-84
2023/01/14 01:20:44;;;;;;;8.63;5.30;;;;;;;9.56;77.45;101951.31;4948761;29;20031;-85
2023/01/14 01:23:13;;;;;;;8.80;5.38;;;;;;;9.98;77.85;102023.22;4938234;28;20058;-85
2023/01/14 01:25:39;;;;;;;9.60;5.45;;;;;;;10.08;77.48;102017.03;4947909;28;20110;-85
2023/01/14 01:28:05;;;;;;;9.65;5.82;;;;;;;10.05;77.35;102014.16;4940951;28;20106;-85
2023/01/14 01:30:31;;;;;;;8.55;5.35;;;;;;;9.55;77.82;101941.69;4943983;29;20043;-85
2023/01/14 01:32:56;;;;;;;9.55;5.20;;;;;;;9.99;77.67;102013.72;4947564;28;20030;-85
2023/01/14 01:35:22;;;;;;;8.88;5.72;;;;;;;9.84;77.36;101978.63;4940026;28;20023;-82
2023/01/14 01:37:48;;;;;;;8.27;5.68;;;;;;;9.95;77.48;101996.91;4950972;28;20031;-85
2023/01/14 01:40:14;;;;;;;10.20;5.95;;;;;;;9.83;77.59;101985.53;4936449;29;20055;-85
2023/01/14 01:42:55;;;;;;;10.27;5.75;;;;;;;9.95;77.38;102001.25;4922834;29;20110;-84
2023/01/14 01:45:41;;;;;;;7.15;5.13;;;;;;;9.92;77.87;101994.06;4935276;29;20469;-86
2023/01/14 01:48:14;;;;;;;9.48;5.68;;;;;;;9.97;77.42;101995.34;4966112;28;20042;-85
2023/01/14 01:50:41;;;;;;;9.75;5.78;;;;;;;9.83;77.90;101971.59;4954408;28;20062;-85
2023/01/14 01:53:07;;;;;;;9.50;5.80;;;;;;;9.93;77.41;101964.56;4964200;28;20559;-85
2023/01/14 01:55:35;;;;;;;8.40;5.55;;;;;;;9.83;77.57;101955.94;4949812;28;20047;-85
2023/01/14 01:58:02;;;;;;;8.45;5.38;;;;;;;9.77;77.73;101951.16;4957005;28;20039;-85
2023/01/14 02:00:27;;;;;;;;;;;;;;;9.97;77.46;101977.06;4941286;28;20032;-84
2023/01/14 02:03:03;;;;;;;10.90;6.03;;;;;;;9.94;77.59;101973.31;4959595;28;20372;-85
2023/01/14 02:05:29;;;;;;;10.45;6.13;;;;;;;9.88;77.43;101970.22;4942714;28;20087;-85
2023/01/14 02:07:56;;;;;;;8.57;5.38;;;;;;;9.78;77.44;101956.50;4935096;29;20639;-85
2023/01/14 02:10:26;;;;;;;8.13;5.32;;;;;;;9.87;77.31;101947.56;4940782;29;20020;-85
2023/01/14 02:13:10;;;;;;;9.98;5.90;;;;;;;9.94;77.35;101971.59;4942834;28;20060;-85
2023/01/14 02:16:10;;;;;;;8.98;5.60;;;;;;;9.91;77.41;101960.94;4946431;29;20035;-85
2023/01/14 02:19:03;;;;;;;9.40;5.32;;;;;;;9.70;77.72;101926.31;4931151;28;20047;-84
2023/01/14 02:21:31;;;;;;;8.55;5.63;;;;;;;9.93;77.74;101966.28;4923930;29;20469;-84
2023/01/14 02:24:12;;;;;;;9.52;5.47;;;;;;;9.94;77.63;101970.69;4943976;29;20035;-84
2023/01/14 02:26:52;;;;;;;8.73;5.28;;;;;;;9.85;77.21;101954.34;4931528;29;20519;-84
2023/01/14 02:29:49;;;;;;;9.52;5.43;;;;;;;9.97;77.42;101970.94;4953427;28;20038;-85
2023/01/14 02:32:44;;;;;;;9.43;5.32;;;;;;;9.87;77.79;101952.78;4948519;28;20027;-85
2023/01/14 02:35:36;;;;;;;9.38;5.50;;;;;;;9.81;77.69;101947.09;4932765;29;20493;-84
2023/01/14 02:38:20;;;;;;;9.82;5.60;;;;;;;9.84;77.70;101957.75;4943137;29;20140;-85
2023/01/14 02:41:03;;;;;;;7.70;4.90;;;;;;;9.98;77.49;101967.53;4947519;29;20170;-85
2023/01/14 02:46:35;;;;;;;7.70;5.00;;;;;;;9.92;77.48;101970.56;4953908;28;20070;-84
2023/01/14 02:49:02;;;;;;;8.30;4.82;;;;;;;9.85;77.68;101955.25;4964747;28;20030;-84
2023/01/14 02:51:28;;;;;;;8.10;5.00;;;;;;;9.94;77.56;101952.44;4959855;28;20063;-85
2023/01/14 02:53:54;;;;;;;7.00;4.88;;;;;;;9.87;77.42;101947.56;4962288;28;20035;-85
2023/01/14 02:56:19;;;;;;;7.80;4.95;;;;;;;9.94;77.71;101968.09;4945325;28;20032;-85
2023/01/14 02:59:08;;;;;;;8.60;5.63;;;;;;;9.90;78.07;101974.75;4941712;28;20038;-84
2023/01/14 03:02:12;;;;;;;8.32;5.22;;;;;;;9.96;77.58;101979.56;4935281;29;20428;-85
2023/01/14 03:05:08;;;;;;;9.05;5.40;;;;;;;9.96;77.68;101984.78;4936409;29;20090;-85
2023/01/14 03:07:37;;;;;;;8.07;4.78;;;;;;;9.94;77.44;101992.47;4927234;28;20043;-85
2023/01/14 03:10:25;;;;;;;8.10;4.93;;;;;;;9.97;77.23;101984.91;4974079;28;20480;-85
2023/01/14 03:13:13;;;;;;;7.80;5.00;;;;;;;9.96;77.30;101975.22;4956938;28;20034;-85
2023/01/14 03:15:39;;;;;;;8.90;5.60;;;;;;;9.98;77.42;101976.25;4956683;28;20027;-85
2023/01/14 03:18:11;;;;;;;6.88;4.50;;;;;;;9.81;77.61;101961.03;4956809;28;20046;-84
2023/01/14 03:20:40;;;;;;;7.63;4.90;;;;;;;9.76;77.67;101955.47;4956329;28;20543;-85
2023/01/14 03:23:09;;;;;;;8.43;4.65;;;;;;;9.93;77.10;101972.41;4972606;28;20033;-85
2023/01/14 03:25:37;;;;;;;6.95;4.82;;;;;;;9.87;77.37;101964.09;4952362;28;20101;-85
2023/01/14 03:28:05;;;;;;;7.55;4.70;;;;;;;9.69;77.55;101934.00;4956222;28;20030;-85
2023/01/14 03:30:36;;;;;;;8.80;4.50;;;;;;;9.60;77.89;101944.66;4972484;28;20037;-85
2023/01/14 03:33:06;;;;;;;7.45;4.63;;;;;;;9.88;77.53;101975.44;4960355;28;20019;-85
2023/01/14 03:35:38;;;;;;;7.55;4.70;;;;;;;9.89;76.99;101966.84;4972365;28;20035;-85
2023/01/14 03:38:10;;;;;;;7.95;5.25;;;;;;;9.86;77.31;101974.41;4969544;28;20023;-84
2023/01/14 03:40:37;;;;;;;8.27;4.65;;;;;;;9.98;77.50;101986.69;4972163;28;20030;-84
2023/01/14 03:43:13;;;;;;;7.25;4.60;;;;;;;10.02;77.06;101981.72;4956276;28;20169;-84
2023/01/14 03:45:40;;;;;;;7.45;4.70;;;;;;;9.83;77.28;101966.38;4973358;28;20019;-85
2023/01/14 03:48:05;;;;;;;;;;;;;;;9.98;77.24;101984.09;4956521;28;20045;-85
2023/01/14 03:50:43;;;;;;;7.85;4.72;;;;;;;9.92;77.49;101986.22;4956161;28;19914;-84
2023/01/14 03:53:41;;;;;;;7.50;4.88;;;;;;;9.94;77.04;101981.13;4973087;28;20072;-84
2023/01/14 03:56:26;;;;;;;;;;;;;;;10.01;77.05;101986.00;4956088;28;20038;-84
2023/01/14 03:59:14;;;;;;;6.70;4.38;;;;;;;9.97;77.20;101977.06;4962616;28;19997;-84
2023/01/14 04:01:47;;;;;;;8.15;4.63;;;;;;;9.91;77.37;101976.59;4973029;28;20049;-84
2023/01/14 04:04:13;;;;;;;7.18;4.10;;;;;;;9.94;77.46;101970.69;4956049;28;20111;-83
2023/01/14 04:06:39;;;;;;;6.03;4.30;;;;;;;9.86;77.42;101963.97;4940154;28;20023;-84
2023/01/14 04:09:06;;;;;;;6.75;4.40;;;;;;;9.86;77.49;101972.72;4948283;28;20055;-84
2023/01/14 04:11:31;;;;;;;7.85;4.68;;;;;;;9.72;77.50;101942.97;4971796;28;20062;-84
2023/01/14 04:16:41;;;;;;;7.43;4.53;;;;;;;9.89;77.29;101965.13;4972110;28;20082;-84
2023/01/14 04:19:07;;;;;;;6.65;4.50;;;;;;;9.88;77.67;101980.66;4972284;28;20030;-84
2023/01/14 04:21:32;;;;;;;6.80;4.43;;;;;;;9.68;77.23;101945.25;4972674;28;20482;-85
2023/01/14 04:23:58;;;;;;;6.03;4.15;;;;;;;9.77;77.63;101964.19;4955495;28;20034;-85
2023/01/14 04:26:23;;;;;;;6.70;4.32;;;;;;;9.89;77.33;101982.50;4955378;28;20113;-85
2023/01/14 04:28:49;;;;;;;7.13;4.30;;;;;;;9.47;77.27;101903.69;4972133;28;20062;-84
2023/01/14 04:31:14;;;;;;;5.82;4.13;;;;;;;9.78;77.14;101960.81;4972532;28;20412;-85
2023/01/14 04:33:40;;;;;;;6.78;4.22;;;;;;;9.87;77.42;101966.72;4972671;28;20019;-84
2023/01/14 04:36:07;;;;;;;7.18;4.25;;;;;;;9.70;76.62;101941.06;4954908;28;20046;-85
2023/01/14 04:38:32;;;;;;;7.57;4.65;;;;;;;9.93;77.37;101995.88;4955281;28;20132;-85
2023/01/14 04:40:58;;;;;;;5.82;3.95;;;;;;;9.94;77.31;101996.78;4972184;28;20484;-84
2023/01/14 04:43:24;;;;;;;6.82;4.43;;;;;;;9.96;77.12;101998.72;4954609;28;20062;-85
2023/01/14 04:45:51;;;;;;;6.25;4.25;;;;;;;9.71;76.98;101950.69;4954132;28;20026;-85
2023/01/14 04:48:18;;;;;;;6.00;4.10;;;;;;;9.89;77.67;102000.75;4971156;28;20500;-85
2023/01/14 04:50:46;;;;;;;7.50;4.47;;;;;;;9.92;77.24;102003.59;4963936;28;20484;-84
2023/01/14 04:53:17;;;;;;;4.95;3.45;;;;;;;9.81;77.03;101973.19;4971975;28;20019;-84
2023/01/14 04:55:45;;;;;;;6.75;4.15;;;;;;;9.60;76.98;101948.97;4971549;28;20031;-84
2023/01/14 04:58:13;;;;;;;5.60;3.90;;;;;;;10.03;76.98;102007.91;4970673;28;20101;-84
2023/01/14 05:00:39;;;;;;;6.43;4.10;;;;;;;9.98;77.02;102014.50;4971818;28;20443;-85
2023/01/14 05:03:06;;;;;;;6.75;4.15;;;;;;;9.97;77.06;102003.16;4954558;28;20030;-84
2023/01/14 05:05:33;;;;;;;6.00;4.00;;;;;;;9.94;77.09;102004.63;4962533;28;20432;-83
2023/01/14 05:07:59;;;;;;;5.95;3.90;;;;;;;9.76;76.93;101970.22;4950099;28;20070;-84
2023/01/14 05:10:26;;;;;;;5.80;4.10;;;;;;;9.93;77.38;102014.16;4971902;28;20614;-84
2023/01/14 05:12:57;;;;;;;5.15;3.78;;;;;;;9.73;77.84;101983.00;4972027;28;20038;-84
2023/01/14 05:15:32;;;;;;;5.80;3.90;;;;;;;9.91;77.44;102013.13;4955213;28;20014;-84
2023/01/14 05:17:58;;;;;;;6.22;3.80;;;;;;;9.88;77.68;102012.88;4954160;28;20086;-83
2023/01/14 05:20:24;;;;;;;7.78;4.22;;;;;;;9.91;77.23;102007.91;4971469;28;20027;-83
2023/01/14 05:22:51;;;;;;;5.93;3.92;;;;;;;9.75;77.12;101969.28;4951173;29;20032;-84
2023/01/14 05:25:17;;;;;;;7.93;4.60;;;;;;;9.70;77.02;101954.09;4952559;28;20114;-83
2023/01/14 05:27:42;;;;;;;6.30;4.18;;;;;;;9.72;77.10;101949.91;4945557;28;20027;-83
2023/01/14 05:30:09;;;;;;;6.88;4.40;;;;;;;9.90;77.05;101985.19;4971772;28;20038;-83
2023/01/14 05:32:34;;;;;;;;;;;;;;;9.96;77.12;102001.31;4954178;28;20058;-83
2023/01/14 05:35:00;;;;;;;7.45;4.30;;;;;;;9.87;77.21;102007.56;4971338;28;19938;-84
2023/01/14 05:37:26;;;;;;;5.80;4.07;;;;;;;9.93;77.13;102014.16;4970566;28;20046;-84
2023/01/14 05:39:51;;;;;;;6.07;3.72;;;;;;;9.94;77.23;102013.34;4954249;28;20504;-84
2023/01/14 05:47:45;;;;;;;6.22;4.00;;;;;;;9.86;77.08;101998.81;4952942;28;20174;-85
2023/01/14 05:50:11;;;;;;;7.38;4.70;;;;;;;9.86;77.34;102009.25;4971051;28;20109;-84
2023/01/14 05:52:37;;;;;;;;;;;;;;;9.93;77.28;102013.25;4972004;28;20074;-84
2023/01/14 05:55:03;;;;;;;5.28;3.55;;;;;;;9.90;77.42;102013.91;4971701;28;20008;-83
2023/01/14 05:57:28;;;;;;;5.90;3.97;;;;;;;9.81;77.01;101992.34;4968481;28;20178;-84
2023/01/14 05:59:54;;;;;;;6.03;4.15;;;;;;;9.91;77.06;102020.97;4954383;28;20518;-84
2023/01/14 06:07:55;;;;;;;7.13;4.03;;;;;;;9.98;76.95;102022.31;4955083;28;20059;-84
2023/01/14 06:10:24;;;;;;;6.97;4.10;;;;;;;9.86;77.19;102024.00;4973771;28;20030;-84
2023/01/14 06:13:05;;;;;;;5.90;4.25;;;;;;;9.82;77.28;102009.81;4974148;28;20038;-85
2023/01/14 06:15:35;;;;;;;6.78;4.22;;;;;;;9.74;77.08;101998.78;4974629;28;20034;-85
2023/01/14 06:18:14;;;;;;;6.10;4.18;;;;;;;9.80;77.67;102011.41;4982248;28;20531;-86
2023/01/14 06:20:40;;;;;;;5.97;3.85;;;;;;;9.85;77.11;102011.75;4970910;28;20468;-86
2023/01/14 06:23:06;;;;;;;5.35;3.60;;;;;;;9.67;77.26;101978.25;4973170;28;20699;-85
2023/01/14 06:25:32;;;;;;;6.28;3.83;;;;;;;9.87;77.50;102020.59;4957208;28;20038;-85
2023/01/14 06:27:59;;;;;;;;;;;;;;;9.91;77.04;102031.41;4974181;28;20026;-85
2023/01/14 06:30:25;;;;;;;6.23;3.93;;;;;;;9.76;76.85;101993.69;4956450;28;20024;-84
2023/01/14 06:32:50;;;;;;;6.30;4.03;;;;;;;9.85;77.08;102024.81;4973338;28;20105;-84
2023/01/14 06:35:16;;;;;;;6.25;3.97;;;;;;;9.89;77.06;102032.06;4973845;28;20455;-85
2023/01/14 06:37:45;;;;;;;5.75;4.00;;;;;;;9.70;77.12;101998.44;4955863;28;20030;-86
2023/01/14 06:40:12;;;;;;;6.97;4.07;;;;;;;9.83;77.08;102024.66;4971389;28;20683;-85
2023/01/14 06:42:40;;;;;;;5.75;3.85;;;;;;;9.88;77.25;102038.06;4955873;28;20031;-84
2023/01/14 06:45:06;;;;;;;7.32;4.10;;;;;;;9.59;77.19;101989.78;4956185;28;20023;-84
2023/01/14 06:47:32;;;;;;;6.05;4.00;;;;;;;9.76;77.25;102020.69;4974203;28;20088;-83
2023/01/14 06:49:57;;;;;;;5.57;3.90;;;;;;;9.64;77.45;102000.56;4955515;28;20034;-84
2023/01/14 06:52:23;;;;;;;6.35;3.92;;;;;;;9.52;77.42;101983.16;4973574;28;20023;-84
2023/01/14 06:54:51;;;;;;;5.53;3.80;;;;;;;9.49;77.72;101969.91;4971539;28;20039;-85
2023/01/14 06:57:16;;;;;;;5.97;4.05;;;;;;;9.64;77.22;102003.19;4964025;28;20038;-85
2023/01/14 06:59:42;;;;;;;6.70;3.90;;;;;;;9.89;77.18;102037.28;4972157;28;20085;-85
2023/01/14 07:02:11;;;;;;;5.45;3.67;;;;;;;9.88;77.11;102040.69;4957014;28;20057;-85
2023/01/14 07:04:36;;;;;;;4.82;3.33;;;;;;;9.64;76.88;101990.13;4955954;28;20121;-85
2023/01/14 07:07:02;;;;;;;5.70;3.92;;;;;;;9.66;77.17;101999.00;4973615;28;20174;-84
2023/01/14 07:09:27;;;;;;;6.28;4.15;;;;;;;9.70;76.83;101994.13;4956131;28;20047;-84
2023/01/14 07:11:53;;;;;;;6.38;3.78;;;;;;;9.74;76.74;102004.00;4940177;28;20061;-84
2023/01/14 07:14:18;;;;;;;6.53;3.88;;;;;;;9.70;77.19;102014.09;4973632;28;20023;-85
2023/01/14 07:16:44;;;;;;;5.47;3.97;;;;;;;9.45;77.46;101970.44;4973658;28;20463;-86
2023/01/14 07:19:11;;;;;;;7.57;4.10;;;;;;;9.68;77.72;102021.78;4956848;28;20042;-84
2023/01/14 07:21:38;;;;;;;4.95;3.60;;;;;;;9.84;77.25;102034.34;4973607;28;20671;-88
2023/01/14 07:24:04;;;;;;;7.18;4.30;;;;;;;9.90;76.87;102053.03;4955789;28;20124;-85
2023/01/14 07:26:30;;;;;;;6.20;4.03;;;;;;;9.66;77.09;102010.31;4973111;28;20035;-83
2023/01/14 07:28:55;;;;;;;6.72;4.18;;;;;;;9.42;77.33;101985.88;4971053;28;20050;-83
2023/01/14 07:31:21;;;;;;;5.63;3.92;;;;;;;9.84;77.42;102051.66;4955568;28;20033;-85
2023/01/14 07:33:47;;;;;;;7.15;4.20;;;;;;;9.92;76.98;102056.69;4968074;28;20034;-84
2023/01/14 07:36:13;;;;;;;6.35;4.15;;;;;;;9.53;77.24;102005.84;4922941;29;20114;-82
2023/01/14 07:38:39;;;;;;;7.20;4.18;;;;;;;9.35;77.36;101967.91;4964646;28;20620;-84
2023/01/14 07:41:09;;;;;;;6.30;3.90;;;;;;;9.66;77.25;102038.13;4953722;28;20027;-84
2023/01/14 07:43:35;;;;;;;7.38;4.22;;;;;;;9.81;77.63;102073.22;4971983;28;20039;-83
2023/01/14 07:46:00;;;;;;;6.03;4.18;;;;;;;9.80;77.10;102050.53;4971783;28;20069;-84
2023/01/14 07:48:27;;;;;;;6.43;4.18;;;;;;;9.76;77.38;102046.78;4951703;28;20042;-83
2023/01/14 07:50:53;;;;;;;7.10;4.13;;;;;;;9.75;77.39;102041.44;4961188;28;20037;-84
2023/01/14 07:53:18;;;;;;;6.47;4.25;;;;;;;9.71;77.21;102031.53;4955980;28;20034;-83
2023/01/14 07:55:44;;;;;;;6.07;4.10;;;;;;;9.77;77.01;102048.56;4973450;28;20105;-83
2023/01/14 07:58:10;;;;;;;6.60;4.33;;;;;;;9.80;77.13;102060.97;4953886;28;20289;-84
2023/01/14 08:00:36;;;;;;;7.03;4.50;;;;;;;9.83;77.05;102058.59;4962364;28;20074;-83
2023/01/14 08:03:02;;;;;;;7.13;4.35;;;;;;;9.85;77.13;102066.53;4953459;28;20031;-85
2023/01/14 08:05:27;;;;;;;7.32;4.35;;;;;;;9.76;76.73;102038.03;4955738;28;20031;-84
2023/01/14 08:07:53;;;;;;;7.43;4.57;;;;;;;9.56;77.24;102008.69;4955647;28;20150;-83
2023/01/14 08:10:19;;;;;;;7.85;4.43;;;;;;;9.83;76.99;102055.97;4970618;28;20570;-84
2023/01/14 08:12:44;;;;;;;7.50;4.50;;;;;;;9.83;77.26;102063.81;4953516;28;20463;-84
2023/01/14 08:15:11;;;;;;;6.75;4.38;;;;;;;9.92;76.84;102074.03;4954177;28;20066;-84
2023/01/14 08:17:37;;;;;;;7.13;4.60;;;;;;;9.90;77.11;102073.00;4970130;28;20046;-84
2023/01/14 08:20:04;;;;;;;7.40;4.72;;;;;;;9.68;77.11;102037.44;4954655;28;20412;-85
2023/01/14 08:22:29;;;;;;;;;;;;;;;9.90;77.07;102073.00;4970873;28;20039;-84
2023/01/14 08:24:55;;;;;;;7.30;4.60;;;;;;;9.64;77.03;102034.47;4970485;28;20378;-85
2023/01/14 08:27:21;;;;;;;7.30;4.80;;;;;;;9.49;77.10;102023.75;4970026;28;20030;-84
2023/01/14 08:29:47;;;;;;;8.32;4.43;;;;;;;9.44;77.41;102012.03;4972432;28;20026;-85
2023/01/14 08:32:15;;;;;;;6.22;4.40;;;;;;;9.58;77.55;102035.78;4970940;28;20029;-85
2023/01/14 08:34:40;;;;;;;8.00;4.45;;;;;;;9.83;77.32;102066.41;4970586;28;20045;-86
2023/01/14 08:37:06;;;;;;;6.60;4.47;;;;;;;9.52;77.06;102014.44;4971918;28;20109;-85
2023/01/14 08:39:33;;;;;;;6.78;4.53;;;;;;;9.65;77.08;102039.81;4955122;28;20502;-86
2023/01/14 08:41:58;;;;;;;7.32;4.85;;;;;;;9.60;77.39;102038.53;4972617;28;20023;-85
2023/01/14 08:44:24;;;;;;;6.70;4.20;;;;;;;9.69;76.96;102038.34;4972069;28;20578;-86
2023/01/14 08:46:50;;;;;;;6.70;4.45;;;;;;;9.86;76.92;102071.84;4972087;28;20031;-84
2023/01/14 08:49:15;;;;;;;7.60;4.43;;;;;;;9.85;77.10;102071.75;4972877;28;20026;-85
2023/01/14 08:51:41;;;;;;;7.38;4.57;;;;;;;9.74;77.18;102056.19;4972585;28;20397;-86
2023/01/14 08:54:07;;;;;;;7.47;4.37;;;;;;;9.70;77.41;102048.91;4971764;28;20039;-86
2023/01/14 08:56:33;;;;;;;7.10;4.50;;;;;;;9.74;77.37;102056.19;4954938;28;20286;-86
2023/01/14 08:58:58;;;;;;;7.72;4.60;;;;;;;9.61;77.11;102044.66;4969672;28;20042;-85
2023/01/14 09:01:24;;;;;;;6.82;4.60;;;;;;;9.56;77.43;102032.16;4971186;28;20547;-87
2023/01/14 09:03:52;;;;;;;7.30;4.57;;;;;;;9.64;77.58;102040.59;4954119;28;20559;-85
2023/01/14 09:06:19;;;;;;;7.82;4.88;;;;;;;9.73;77.78;102048.22;4954509;28;20023;-85
2023/01/14 09:17:12;;;;;;;8.93;5.20;;;;;;;9.83;77.45;102048.16;4971003;28;20067;-85
2023/01/14 09:19:45;;;;;;;10.20;5.15;;;;;;;9.73;77.58;102028.25;4970540;28;20037;-85
2023/01/14 09:22:13;;;;;;;8.80;4.60;;;;;;;9.84;77.51;102043.84;4952368;28;20034;-85
2023/01/14 09:24:39;;;;;;;10.77;4.55;;;;;;;9.77;77.60;102025.09;4938427;28;20030;-85
2023/01/14 09:27:04;;;;;;;8.85;4.90;;;;;;;9.85;77.86;102037.84;4953396;28;20038;-86
2023/01/14 09:29:30;;;;;;;7.40;4.60;;;;;;;9.79;77.97;102025.22;4954173;28;20023;-86
2023/01/14 09:31:56;;;;;;;8.07;4.38;;;;;;;9.45;77.33;101946.97;4970950;28;20026;-85
2023/01/14 09:34:21;;;;;;;10.27;4.78;;;;;;;9.89;77.80;102032.97;4953755;28;20030;-87
2023/01/14 09:36:49;;;;;;;9.25;5.10;;;;;;;9.65;77.58;101987.66;4954432;28;20030;-86
2023/01/14 09:39:14;;;;;;;9.98;4.70;;;;;;;9.87;77.54;102025.81;4965270;28;20031;-86
2023/01/14 09:41:46;;;;;;;8.70;4.65;;;;;;;9.54;77.54;101957.22;4954176;28;20035;-86
2023/01/14 09:44:12;;;;;;;11.05;4.35;;;;;;;9.57;77.28;101957.47;4974714;28;20117;-87
2023/01/14 09:46:37;;;;;;;9.30;4.40;;;;;;;9.82;77.48;102001.06;4971444;28;20106;-86
2023/01/14 09:49:05;;;;;;;9.45;4.50;;;;;;;9.64;77.58;101966.66;4973506;28;20102;-86
2023/01/14 09:51:57;;;;;;;9.20;4.38;;;;;;;9.77;77.54;101978.13;4962081;28;20034;-85
2023/01/14 09:54:29;;;;;;;9.90;4.47;;;;;;;9.87;77.69;102002.34;4953805;28;20026;-86
2023/01/14 09:56:59;;;;;;;10.63;4.88;;;;;;;9.86;78.23;102006.63;4975754;28;20031;-86
2023/01/14 09:59:43;;;;;;;9.40;4.70;;;;;;;9.83;77.49;101974.19;4956224;28;20074;-85
2023/01/14 10:02:15;;;;;;;9.10;4.75;;;;;;;10.03;77.36;101991.34;4973720;28;20039;-86
2023/01/14 10:04:59;;;;;;;7.75;4.63;;;;;;;9.88;77.42;101962.41;4965501;28;20110;-86
2023/01/14 10:07:27;;;;;;;7.60;4.25;;;;;;;9.90;77.44;101981.69;4965874;28;20077;-86
2023/01/14 10:09:54;;;;;;;10.10;4.70;;;;;;;9.55;77.60;101918.22;4972381;28;20541;-85
2023/01/14 10:12:33;;;;;;;6.72;4.18;;;;;;;9.70;77.75;101936.75;4974021;28;20023;-85
2023/01/14 10:15:07;;;;;;;8.05;4.50;;;;;;;9.91;77.95;101975.69;4955961;28;20035;-85
2023/01/14 10:17:36;;;;;;;9.70;4.95;;;;;;;9.54;78.16;101911.16;4954632;28;20030;-85
2023/01/14 10:20:22;;;;;;;10.43;4.90;;;;;;;9.89;77.75;101977.28;4957783;28;20100;-85
2023/01/14 10:22:52;;;;;;;7.90;4.07;;;;;;;9.90;77.95;101979.09;4955532;28;20536;-87
2023/01/14 10:25:20;;;;;;;9.18;4.45;;;;;;;9.86;77.90;101967.50;4941526;28;20035;-87
2023/01/14 10:27:57;;;;;;;9.40;4.45;;;;;;;9.88;77.88;101957.19;4968909;28;20117;-87
2023/01/14 10:30:32;;;;;;;8.77;4.50;;;;;;;9.84;77.53;101948.25;4958008;28;20101;-89
2023/01/14 10:32:59;;;;;;;8.90;4.45;;;;;;;9.77;77.75;101938.09;4975240;28;20034;-87
2023/01/14 10:35:35;;;;;;;;;;;;;;;9.96;77.66;101974.34;4956491;28;20086;-87
2023/01/14 10:38:01;;;;;;;8.40;4.30;;;;;;;9.92;77.89;101969.66;4947933;28;19918;-88
2023/01/14 10:40:29;;;;;;;9.75;4.72;;;;;;;9.86;77.58;101956.16;4973872;28;20034;-88
2023/01/14 10:42:56;;;;;;;8.45;4.50;;;;;;;9.88;77.63;101947.66;4954857;28;20034;-88
2023/01/14 10:45:23;;;;;;;9.27;4.72;;;;;;;9.74;77.90;101932.69;4958059;28;20023;-89
2023/01/14 10:47:53;;;;;;;8.70;4.25;;;;;;;9.80;77.89;101943.56;4957235;28;20496;-88
2023/01/14 10:50:25;;;;;;;8.50;4.50;;;;;;;10.00;77.61;101958.13;4934570;29;20015;-89
2023/01/14 10:52:52;;;;;;;9.23;4.85;;;;;;;9.84;77.68;101935.19;4957288;28;20037;-88
2023/01/14 10:55:23;;;;;;;9.07;4.63;;;;;;;9.68;78.00;101909.63;4973974;28;20578;-88
2023/01/14 10:58:08;;;;;;;8.52;4.63;;;;;;;9.97;78.05;101960.50;4960063;28;20031;-88
2023/01/14 11:00:42;;;;;;;7.40;4.72;;;;;;;9.82;77.88;101931.56;4977388;28;20113;-88
2023/01/14 11:03:29;;;;;;;9.57;4.57;;;;;;;9.92;78.25;101949.69;4969024;28;20023;-87
2023/01/14 11:05:57;;;;;;;8.45;4.70;;;;;;;9.92;78.21;101947.09;4983500;28;20049;-87
2023/01/14 11:08:34;;;;;;;7.25;4.35;;;;;;;9.94;77.49;101927.25;4972720;28;20129;-88
2023/01/14 11:11:36;;;;;;;7.88;4.78;;;;;;;9.98;77.71;101934.50;4974580;28;20027;-88
2023/01/14 11:14:26;;;;;;;6.85;4.15;;;;;;;9.98;78.08;101947.56;4940569;28;20023;-88
2023/01/14 11:16:51;;;;;;;7.75;4.32;;;;;;;9.98;77.59;101939.72;4955284;28;20024;-88
2023/01/14 11:19:20;;;;;;;6.22;4.38;;;;;;;10.03;77.79;101945.28;4974480;28;20038;-87
2023/01/14 11:21:59;;;;;;;7.57;4.63;;;;;;;10.05;77.83;101940.19;4964779;28;20515;-86
2023/01/14 11:24:35;;;;;;;7.82;4.20;;;;;;;9.96;77.73;101928.25;4964028;28;20624;-87
2023/01/14 11:27:02;;;;;;;5.90;4.13;;;;;;;10.02;77.92;101938.25;4940356;28;20507;-88
2023/01/14 11:29:31;;;;;;;6.57;4.22;;;;;;;9.92;77.83;101917.47;4953614;28;20038;-88
2023/01/14 11:32:21;;;;;;;7.03;4.15;;;;;;;10.02;78.03;101934.75;4955282;28;20045;-86
2023/01/14 11:34:57;;;;;;;6.53;4.10;;;;;;;9.71;77.85;101872.44;4939019;28;20039;-87
2023/01/14 11:37:57;;;;;;;9.57;4.85;;;;;;;10.08;77.63;101927.38;4937353;28;20039;-86
2023/01/14 11:43:25;;;;;;;8.05;4.38;;;;;;;9.61;78.21;101864.69;4972620;28;20187;-85
2023/01/14 11:46:26;;;;;;;6.13;4.10;;;;;;;9.74;77.91;101868.38;4969699;28;20138;-87
2023/01/14 11:49:16;;;;;;;6.78;4.10;;;;;;;9.92;77.89;101902.72;4969315;28;20057;-85
2023/01/14 11:52:30;;;;;;;7.15;4.35;;;;;;;9.64;77.76;101857.13;4940015;28;20031;-88
2023/01/14 11:54:58;;;;;;;8.50;4.18;;;;;;;9.84;78.06;101896.06;4938428;28;20041;-86
2023/01/14 11:57:26;;;;;;;7.25;4.20;;;;;;;9.72;77.73;101859.50;4937870;28;20023;-85
2023/01/14 11:59:53;;;;;;;7.65;4.55;;;;;;;9.82;77.86;101889.81;4939481;28;20035;-86
2023/01/14 12:02:27;;;;;;;6.82;4.32;;;;;;;9.62;77.79;101838.75;4954975;28;20125;-85
2023/01/14 12:05:00;;;;;;;7.60;4.40;;;;;;;9.79;78.24;101884.34;4955482;28;20043;-86
2023/01/14 12:07:43;;;;;;;8.20;4.53;;;;;;;10.08;78.35;101930.00;4937480;28;20033;-85
2023/01/14 12:10:25;;;;;;;5.25;3.72;;;;;;;9.51;78.09;101839.66;4970680;28;20062;-87
2023/01/14 12:19:03;;;;;;;6.70;3.88;;;;;;;9.75;78.18;101884.91;4972683;28;20124;-86
2023/01/14 12:21:36;;;;;;;5.75;3.85;;;;;;;10.06;78.37;101937.69;4968774;28;20035;-86